createdAt,value
2018-01-13T00:02:12.912Z,1.87
2018-01-13T00:04:40.498Z,2.30
2018-01-13T00:07:08.146Z,3.20
2018-01-13T00:09:35.722Z,2.40
2018-01-13T00:12:03.281Z,2.03
2018-01-13T00:14:30.881Z,2.00
2018-01-13T00:16:58.494Z,1.80
2018-01-13T00:19:26.164Z,1.63
2018-01-13T00:21:53.744Z,1.70
2018-01-13T00:24:22.052Z,2.03
2018-01-13T00:26:49.696Z,1.27
2018-01-13T00:29:17.312Z,1.90
2018-01-13T00:31:44.858Z,1.53
2018-01-13T00:34:12.476Z,1.77
2018-01-13T00:36:40.043Z,2.00
2018-01-13T00:39:07.586Z,1.40
2018-01-13T00:41:36.018Z,1.20
2018-01-13T00:44:03.586Z,2.00
2018-01-13T00:46:31.196Z,2.20
2018-01-13T00:48:58.784Z,4.63
2018-01-13T00:51:26.795Z,2.47
2018-01-13T00:53:54.389Z,2.10
2018-01-13T00:56:21.950Z,3.30
2018-01-13T00:58:49.526Z,1.60
2018-01-13T01:01:17.182Z,2.53
2018-01-13T01:03:44.799Z,1.83
2018-01-13T01:06:12.396Z,1.17
2018-01-13T01:08:39.964Z,1.70
2018-01-13T01:11:07.560Z,2.17
2018-01-13T01:13:36.828Z,1.00
2018-01-13T01:16:04.407Z,2.60
2018-01-13T01:18:31.970Z,1.90
2018-01-13T01:20:59.586Z,1.67
2018-01-13T01:23:27.922Z,2.53
2018-01-13T01:25:56.753Z,1.50
2018-01-13T01:28:24.354Z,2.27
2018-01-13T01:30:51.920Z,2.10
2018-01-13T01:33:19.498Z,2.53
2018-01-13T01:35:47.098Z,1.43
2018-01-13T01:38:15.424Z,1.57
2018-01-13T01:40:43.090Z,2.17
2018-01-13T01:43:10.645Z,1.93
2018-01-13T01:45:38.236Z,1.50
2018-01-13T01:48:05.790Z,1.60
2018-01-13T01:50:34.145Z,1.90
2018-01-13T01:53:01.904Z,1.57
2018-01-13T01:55:30.306Z,2.13
2018-01-13T01:57:57.938Z,1.67
2018-01-13T02:00:25.500Z,1.80
2018-01-13T02:02:53.098Z,1.73
2018-01-13T02:05:21.848Z,2.50
2018-01-13T02:07:49.428Z,2.13
2018-01-13T02:10:17.032Z,1.50
2018-01-13T02:12:44.690Z,1.73
2018-01-13T02:15:12.314Z,1.20
2018-01-13T02:17:39.904Z,2.97
2018-01-13T02:20:07.478Z,1.57
2018-01-13T02:22:35.032Z,1.80
2018-01-13T02:25:03.410Z,2.20
2018-01-13T02:27:30.993Z,1.80
2018-01-13T02:29:58.604Z,1.53
2018-01-13T02:32:27.083Z,1.30
2018-01-13T02:34:55.507Z,1.50
2018-01-13T02:37:23.584Z,1.77
2018-01-13T02:39:51.155Z,1.53
2018-01-13T02:42:18.763Z,1.87
2018-01-13T02:44:47.309Z,1.77
2018-01-13T02:47:15.925Z,1.60
2018-01-13T02:49:44.269Z,1.33
2018-01-13T02:52:11.858Z,1.83
2018-01-13T02:54:40.314Z,1.40
2018-01-13T02:57:07.921Z,1.47
2018-01-13T02:59:35.485Z,1.47
2018-01-13T03:02:03.050Z,1.43
2018-01-13T03:04:30.690Z,1.60
2018-01-13T03:06:59.186Z,1.67
2018-01-13T03:09:26.774Z,2.30
2018-01-13T03:11:54.322Z,2.00
2018-01-13T03:14:21.962Z,1.47
2018-01-13T03:16:49.640Z,1.30
2018-01-13T03:19:17.314Z,1.97
2018-01-13T03:21:45.784Z,2.60
2018-01-13T03:24:13.312Z,1.30
2018-01-13T03:26:41.660Z,1.40
2018-01-13T03:29:09.214Z,1.90
2018-01-13T03:31:36.926Z,1.10
2018-01-13T03:34:05.253Z,1.47
2018-01-13T03:36:32.829Z,1.00
2018-01-13T03:39:01.257Z,1.23
2018-01-13T03:41:28.833Z,1.10
2018-01-13T03:43:56.437Z,1.77
2018-01-13T03:46:24.002Z,1.50
2018-01-13T03:48:51.575Z,1.27
2018-01-13T03:51:20.827Z,0.93
2018-01-13T03:53:48.387Z,1.90
2018-01-13T03:56:16.038Z,1.47
2018-01-13T03:58:43.762Z,1.93
2018-01-13T04:01:12.101Z,1.70
2018-01-13T04:03:40.092Z,1.40
2018-01-13T04:06:09.310Z,1.43
2018-01-13T04:08:37.679Z,1.30
2018-01-13T04:11:06.033Z,3.23
2018-01-13T04:13:33.685Z,1.50
2018-01-13T04:16:01.243Z,1.37
2018-01-13T04:18:28.820Z,1.57
2018-01-13T04:20:56.417Z,1.20
2018-01-13T04:23:24.029Z,1.33
2018-01-13T04:25:51.955Z,1.17
2018-01-13T04:28:20.806Z,1.13
2018-01-13T04:30:48.379Z,1.60
2018-01-13T04:33:16.874Z,1.37
2018-01-13T04:35:44.450Z,1.83
2018-01-13T04:38:12.035Z,0.80
2018-01-13T04:40:39.685Z,1.10
2018-01-13T04:43:07.278Z,1.60
2018-01-13T04:45:34.866Z,1.60
2018-01-13T04:48:03.217Z,1.83
2018-01-13T04:50:30.791Z,1.40
2018-01-13T04:52:59.184Z,1.40
2018-01-13T04:55:27.581Z,1.30
2018-01-13T04:57:55.206Z,1.50
2018-01-13T05:00:23.554Z,1.80
2018-01-13T05:02:51.178Z,1.50
2018-01-13T05:05:18.763Z,2.10
2018-01-13T05:07:46.321Z,0.93
2018-01-13T05:10:13.895Z,1.63
2018-01-13T05:12:41.465Z,1.67
2018-01-13T05:15:09.062Z,1.23
2018-01-13T05:17:37.373Z,1.23
2018-01-13T05:20:05.129Z,1.73
2018-01-13T05:22:32.745Z,1.50
2018-01-13T05:25:01.127Z,1.50
2018-01-13T05:27:29.495Z,1.70
2018-01-13T05:29:57.206Z,1.20
2018-01-13T05:32:24.881Z,1.60
2018-01-13T05:34:52.470Z,1.53
2018-01-13T05:37:20.023Z,1.53
2018-01-13T05:39:47.617Z,1.33
2018-01-13T05:42:15.935Z,1.83
2018-01-13T05:44:43.533Z,1.20
2018-01-13T05:47:11.217Z,1.60
2018-01-13T05:49:39.567Z,1.90
2018-01-13T05:52:07.135Z,0.83
2018-01-13T05:54:34.747Z,2.03
2018-01-13T05:57:02.277Z,1.10
2018-01-13T05:59:30.589Z,1.83
2018-01-13T06:01:58.201Z,1.40
2018-01-13T06:04:26.647Z,1.57
2018-01-13T06:06:54.223Z,1.80
2018-01-13T06:09:22.753Z,1.23
2018-01-13T06:11:50.323Z,1.57
2018-01-13T06:14:17.923Z,2.23
2018-01-13T06:16:46.367Z,1.27
2018-01-13T06:19:14.135Z,1.70
2018-01-13T06:21:41.705Z,1.50
2018-01-13T06:24:09.337Z,1.37
2018-01-13T06:26:36.953Z,2.00
2018-01-13T06:29:04.534Z,1.57
2018-01-13T06:31:32.873Z,1.30
2018-01-13T06:34:00.465Z,18.27
2018-01-13T06:36:28.171Z,1.43
2018-01-13T06:38:55.817Z,1.40
2018-01-13T06:41:23.677Z,1.53
2018-01-13T06:43:51.235Z,1.27
2018-01-13T06:46:20.024Z,1.33
2018-01-13T06:48:47.607Z,1.43
2018-01-13T06:51:15.283Z,1.67
2018-01-13T06:53:42.946Z,2.10
2018-01-13T06:56:10.632Z,1.60
2018-01-13T06:58:38.172Z,1.80
2018-01-13T07:01:05.744Z,4.30
2018-01-13T07:03:33.286Z,1.33
2018-01-13T07:06:00.868Z,1.00
2018-01-13T07:08:29.926Z,1.57
2018-01-13T07:10:57.532Z,2.20
2018-01-13T07:13:25.213Z,1.90
2018-01-13T07:15:53.572Z,13.97
2018-01-13T07:18:21.210Z,3.47
2018-01-13T07:20:48.754Z,4.43
2018-01-13T07:23:16.400Z,4.30
2018-01-13T07:25:43.946Z,2.93
2018-01-13T07:28:12.550Z,3.10
2018-01-13T07:30:40.228Z,2.60
2018-01-13T07:33:07.851Z,6.63
2018-01-13T07:35:35.425Z,9.00
2018-01-13T07:38:02.991Z,5.67
2018-01-13T07:40:30.578Z,4.40
2018-01-13T07:42:58.261Z,3.53
2018-01-13T07:45:25.893Z,3.20
2018-01-13T07:47:53.510Z,8.77
2018-01-13T07:50:21.894Z,3.27
2018-01-13T07:52:49.573Z,7.50
2018-01-13T07:55:17.156Z,3.67
2018-01-13T07:57:44.795Z,3.30
2018-01-13T08:00:12.376Z,3.37
2018-01-13T08:02:39.946Z,5.77
2018-01-13T08:05:07.528Z,3.73
2018-01-13T08:07:35.236Z,4.00
2018-01-13T08:10:02.818Z,5.53
2018-01-13T08:12:30.384Z,6.57
2018-01-13T08:14:57.949Z,5.63
2018-01-13T08:17:25.536Z,17.60
2018-01-13T08:19:53.118Z,10.00
2018-01-13T08:22:20.694Z,7.27
2018-01-13T08:24:49.096Z,8.20
2018-01-13T08:27:17.544Z,6.90
2018-01-13T08:29:45.138Z,5.20
2018-01-13T08:32:12.980Z,3.37
2018-01-13T08:34:40.694Z,4.93
2018-01-13T08:37:08.330Z,5.40
2018-01-13T08:39:36.767Z,5.27
2018-01-13T08:42:04.756Z,5.23
2018-01-13T08:44:32.419Z,10.03
2018-01-13T08:47:00.078Z,4.87
2018-01-13T08:49:27.678Z,7.47
2018-01-13T08:51:55.253Z,5.40
2018-01-13T08:54:22.874Z,6.37
2018-01-13T08:56:50.608Z,9.10
2018-01-13T08:59:18.954Z,8.50
2018-01-13T09:01:47.919Z,8.43
2018-01-13T09:04:15.480Z,18.20
2018-01-13T09:06:43.088Z,12.83
2018-01-13T09:09:11.780Z,16.40
2018-01-13T09:11:39.412Z,4.60
2018-01-13T09:14:06.954Z,8.40
2018-01-13T09:16:35.366Z,8.30
2018-01-13T09:19:04.455Z,9.07
2018-01-13T09:21:32.886Z,7.20
2018-01-13T09:24:01.204Z,7.50
2018-01-13T09:26:29.632Z,10.97
2018-01-13T09:28:57.236Z,13.23
2018-01-13T09:31:24.826Z,10.20
2018-01-13T09:33:53.196Z,10.27
2018-01-13T09:36:21.575Z,6.63
2018-01-13T09:38:49.894Z,18.97
2018-01-13T09:41:17.590Z,7.80
2018-01-13T09:43:45.276Z,6.87
2018-01-13T09:46:13.652Z,5.10
2018-01-13T09:48:41.607Z,16.10
2018-01-13T09:51:09.393Z,6.23
2018-01-13T09:53:37.957Z,12.37
2018-01-13T09:56:06.544Z,7.20
2018-01-13T09:58:35.657Z,6.90
2018-01-13T10:01:04.047Z,11.20
2018-01-13T10:03:31.618Z,8.70
2018-01-13T10:06:00.057Z,7.17
2018-01-13T10:08:27.722Z,9.13
2018-01-13T10:10:55.508Z,8.40
2018-01-13T10:13:23.837Z,6.97
2018-01-13T10:15:51.455Z,6.07
2018-01-13T10:18:19.030Z,10.13
2018-01-13T10:20:46.586Z,7.40
2018-01-13T10:23:16.408Z,7.80
2018-01-13T10:25:43.960Z,14.33
2018-01-13T10:28:11.723Z,22.50
2018-01-13T10:30:39.385Z,14.73
2018-01-13T10:33:07.150Z,19.83
2018-01-13T10:35:36.172Z,18.37
2018-01-13T10:38:03.713Z,25.40
2018-01-13T10:40:31.288Z,9.30
2018-01-13T10:42:58.910Z,7.30
2018-01-13T10:45:26.506Z,7.17
2018-01-13T10:47:54.864Z,8.87
2018-01-13T10:50:22.423Z,10.07
2018-01-13T10:52:50.054Z,6.90
2018-01-13T10:55:18.467Z,9.17
2018-01-13T10:57:46.507Z,5.77
2018-01-13T11:00:14.875Z,10.93
2018-01-13T11:02:43.213Z,6.33
2018-01-13T11:05:10.799Z,7.40
2018-01-13T11:07:38.405Z,6.53
2018-01-13T11:10:05.980Z,5.53
2018-01-13T11:12:33.519Z,8.37
2018-01-13T11:15:01.141Z,12.30
2018-01-13T11:17:30.679Z,6.30
2018-01-13T11:19:58.285Z,6.27
2018-01-13T11:22:25.927Z,8.23
2018-01-13T11:24:53.506Z,15.07
2018-01-13T11:27:21.107Z,6.83
2018-01-13T11:29:49.601Z,5.50
2018-01-13T11:32:17.202Z,17.83
2018-01-13T11:34:44.839Z,5.17
2018-01-13T11:37:12.421Z,7.90
2018-01-13T11:39:40.185Z,3.90
2018-01-13T11:42:07.793Z,5.10
2018-01-13T11:44:36.147Z,4.33
2018-01-13T11:47:03.779Z,6.67
2018-01-13T11:49:31.400Z,4.53
2018-01-13T11:51:59.777Z,6.63
2018-01-13T11:54:27.623Z,9.73
2018-01-13T11:56:55.253Z,5.43
2018-01-13T11:59:22.913Z,6.53
2018-01-13T12:01:50.561Z,2.90
2018-01-13T12:04:18.894Z,4.07
2018-01-13T12:06:47.259Z,5.50
2018-01-13T12:09:14.857Z,4.60
2018-01-13T12:11:42.628Z,2.70
2018-01-13T12:14:11.112Z,3.30
2018-01-13T12:16:38.657Z,3.00
2018-01-13T12:19:06.981Z,7.80
2018-01-13T12:21:34.532Z,4.07
2018-01-13T12:24:02.109Z,3.80
2018-01-13T12:26:29.824Z,5.73
2018-01-13T12:28:57.443Z,8.67
2018-01-13T12:31:25.068Z,3.03
2018-01-13T12:33:53.322Z,3.13
2018-01-13T12:36:20.907Z,3.10
2018-01-13T12:38:48.447Z,2.70
2018-01-13T12:41:16.365Z,7.10
2018-01-13T12:43:43.951Z,6.83
2018-01-13T12:46:11.640Z,3.40
2018-01-13T12:48:39.307Z,9.30
2018-01-13T12:51:06.849Z,9.93
2018-01-13T12:53:34.436Z,4.33
2018-01-13T12:56:01.964Z,5.80
2018-01-13T12:58:29.528Z,3.60
2018-01-13T13:00:57.982Z,18.70
2018-01-13T13:03:29.914Z,3.60
2018-01-13T13:06:02.686Z,3.43
2018-01-13T13:08:32.485Z,6.10
2018-01-13T13:11:03.247Z,4.47
2018-01-13T13:13:34.147Z,5.97
2018-01-13T13:16:09.046Z,3.93
2018-01-13T13:18:38.143Z,7.20
2018-01-13T13:21:06.556Z,2.27
2018-01-13T13:23:34.188Z,7.63
2018-01-13T13:26:02.530Z,5.57
2018-01-13T13:28:30.095Z,3.23
2018-01-13T13:30:57.689Z,2.83
2018-01-13T13:33:25.276Z,3.60
2018-01-13T13:35:52.842Z,7.93
2018-01-13T13:38:20.597Z,5.90
2018-01-13T13:40:48.332Z,5.60
2018-01-13T13:43:15.918Z,8.50
2018-01-13T13:45:43.670Z,5.03
2018-01-13T13:48:12.013Z,5.57
2018-01-13T13:50:39.556Z,6.53
2018-01-13T13:53:09.710Z,6.80
2018-01-13T13:55:38.008Z,7.53
2018-01-13T13:58:05.837Z,8.07
2018-01-13T14:00:33.566Z,4.37
2018-01-13T14:03:01.618Z,6.20
2018-01-13T14:05:29.432Z,3.93
2018-01-13T14:07:58.936Z,5.03
2018-01-13T14:10:26.502Z,5.47
2018-01-13T14:12:54.104Z,5.40
2018-01-13T14:15:21.711Z,4.20
2018-01-13T14:17:49.269Z,6.17
2018-01-13T14:20:17.908Z,8.60
2018-01-13T14:22:46.196Z,4.60
2018-01-13T14:25:15.353Z,5.00
2018-01-13T14:27:43.657Z,4.50
2018-01-13T14:30:11.287Z,5.10
2018-01-13T14:32:39.605Z,5.97
2018-01-13T14:35:07.236Z,3.93
2018-01-13T14:37:35.300Z,4.00
2018-01-13T14:40:03.638Z,3.70
2018-01-13T14:42:31.171Z,8.57
2018-01-13T14:44:58.730Z,4.50
2018-01-13T14:47:26.284Z,4.47
2018-01-13T14:49:53.876Z,6.53
2018-01-13T14:52:21.538Z,3.90
2018-01-13T14:54:49.059Z,5.50
2018-01-13T14:57:17.057Z,6.77
2018-01-13T14:59:44.691Z,4.90
2018-01-13T15:02:12.791Z,7.67
2018-01-13T15:04:40.332Z,5.07
2018-01-13T15:07:07.901Z,7.03
2018-01-13T15:09:35.395Z,4.93
2018-01-13T15:12:03.879Z,6.60
2018-01-13T15:14:31.616Z,6.33
2018-01-13T15:16:59.109Z,3.87
2018-01-13T15:19:26.965Z,6.63
2018-01-13T15:21:55.207Z,6.97
2018-01-13T15:24:22.803Z,4.27
2018-01-13T15:26:51.331Z,3.60
2018-01-13T15:29:19.107Z,6.43
2018-01-13T15:31:46.668Z,5.27
2018-01-13T15:34:14.213Z,3.07
2018-01-13T15:36:41.788Z,5.17
2018-01-13T15:39:09.787Z,5.27
2018-01-13T15:41:37.347Z,4.10
2018-01-13T15:44:04.861Z,4.23
2018-01-13T15:46:32.411Z,7.63
2018-01-13T15:48:59.973Z,5.60
2018-01-13T15:51:27.501Z,6.20
2018-01-13T15:53:55.840Z,6.40
2018-01-13T15:56:23.388Z,5.13
2018-01-13T15:58:51.347Z,5.43
2018-01-13T16:01:20.009Z,35.67
2018-01-13T16:03:53.087Z,4.73
2018-01-13T16:06:23.454Z,4.90
2018-01-13T16:08:52.994Z,4.60
2018-01-13T16:11:22.528Z,7.80
2018-01-13T16:13:51.777Z,12.27
2018-01-13T16:16:28.031Z,11.33
2018-01-13T16:19:00.647Z,14.13
2018-01-13T16:21:29.781Z,16.53
2018-01-13T16:23:58.237Z,7.63
2018-01-13T16:26:28.670Z,7.07
2018-01-13T16:29:00.069Z,17.13
2018-01-13T16:31:30.631Z,32.80
2018-01-13T16:34:00.461Z,30.33
2018-01-13T16:36:33.710Z,10.60
2018-01-13T16:41:44.342Z,17.73
2018-01-13T16:44:16.665Z,5.80
2018-01-13T16:46:48.828Z,8.10
2018-01-13T16:49:16.955Z,10.87
2018-01-13T16:51:47.326Z,10.67
2018-01-13T16:54:17.285Z,10.77
2018-01-13T16:56:47.409Z,6.77
2018-01-13T16:59:21.524Z,10.40
2018-01-13T17:01:58.496Z,10.13
2018-01-13T17:04:27.675Z,408.07
2018-01-13T17:06:56.287Z,1590.37
2018-01-13T17:09:27.305Z,2266.67
2018-01-13T17:11:57.066Z,2266.67
2018-01-13T17:14:33.581Z,2155.07
2018-01-13T17:17:07.518Z,1149.73
2018-01-13T17:19:37.113Z,765.40
2018-01-13T17:22:31.873Z,744.80
2018-01-13T17:25:04.464Z,654.53
2018-01-13T17:27:35.666Z,617.63
2018-01-13T17:30:06.200Z,678.40
2018-01-13T17:32:44.566Z,609.33
2018-01-13T17:35:14.685Z,575.60
2018-01-13T17:37:45.418Z,565.67
2018-01-13T17:40:16.029Z,570.40
2018-01-13T17:42:48.013Z,563.20
2018-01-13T17:45:21.763Z,512.30
2018-01-13T17:47:49.503Z,510.93
2018-01-13T17:50:20.539Z,516.17
2018-01-13T17:52:56.689Z,578.03
2018-01-13T17:55:26.260Z,560.20
2018-01-13T17:57:56.293Z,431.93
2018-01-13T18:00:25.235Z,270.60
2018-01-13T18:02:53.753Z,109.87
2018-01-13T18:05:24.848Z,63.07
2018-01-13T18:07:58.143Z,50.87
2018-01-13T18:10:28.801Z,45.20
2018-01-13T18:12:56.681Z,49.57
2018-01-13T18:15:24.705Z,44.07
2018-01-13T18:18:01.441Z,38.77
2018-01-13T18:20:31.897Z,36.40
2018-01-13T18:23:01.052Z,31.53
2018-01-13T18:25:31.469Z,34.40
2018-01-13T18:28:00.590Z,35.03
2018-01-13T18:30:28.434Z,50.70
2018-01-13T18:32:57.723Z,67.80
2018-01-13T18:35:26.979Z,74.40
2018-01-13T18:37:56.579Z,76.93
2018-01-13T18:40:24.271Z,95.50
2018-01-13T18:42:52.728Z,94.17
2018-01-13T18:45:24.330Z,91.07
2018-01-13T18:47:56.198Z,102.27
2018-01-13T18:50:24.730Z,91.93
2018-01-13T18:52:53.934Z,110.93
2018-01-13T18:55:22.795Z,103.10
2018-01-13T18:57:52.496Z,104.23
2018-01-13T19:00:22.354Z,112.00
2018-01-13T19:02:52.859Z,121.17
2018-01-13T19:05:21.571Z,98.90
2018-01-13T19:07:50.557Z,121.53
2018-01-13T19:10:19.159Z,106.57
2018-01-13T19:12:47.080Z,96.10
2018-01-13T19:15:16.540Z,98.73
2018-01-13T19:17:45.033Z,96.70
2018-01-13T19:20:14.345Z,102.20
2018-01-13T19:22:43.353Z,104.27
2018-01-13T19:25:16.857Z,80.40
2018-01-13T19:27:48.062Z,112.93
2018-01-13T19:30:16.058Z,118.47
2018-01-13T19:32:44.898Z,108.77
2018-01-13T19:35:19.430Z,99.00
2018-01-13T19:37:48.867Z,120.90
2018-01-13T19:40:16.764Z,118.37
2018-01-13T19:42:45.047Z,120.53
2018-01-13T19:45:22.252Z,127.17
2018-01-13T19:47:50.872Z,103.50
2018-01-13T19:50:20.336Z,107.90
2018-01-13T19:52:50.203Z,107.50
2018-01-13T19:55:18.960Z,96.53
2018-01-13T19:57:47.678Z,120.70
2018-01-13T20:00:16.642Z,108.37
2018-01-13T20:02:45.764Z,109.77
2018-01-13T20:05:16.460Z,105.50
2018-01-13T20:07:44.347Z,99.70
2018-01-13T20:10:15.490Z,90.03
2018-01-13T20:12:44.424Z,88.87
2018-01-13T20:15:15.509Z,89.47
2018-01-13T20:17:46.035Z,102.93
2018-01-13T20:22:50.901Z,98.77
2018-01-13T20:25:22.277Z,88.37
2018-01-13T20:30:23.421Z,90.20
2018-01-13T20:32:53.342Z,88.43
2018-01-13T20:35:30.552Z,92.67
2018-01-13T20:37:59.349Z,84.43
2018-01-13T20:40:28.517Z,77.80
2018-01-13T20:42:56.368Z,78.40
2018-01-13T20:45:25.457Z,79.17
2018-01-13T20:47:56.802Z,74.60
2018-01-13T20:50:25.454Z,70.83
2018-01-13T20:52:55.331Z,69.77
2018-01-13T20:55:28.262Z,80.50
2018-01-13T20:57:56.978Z,71.57
2018-01-13T21:00:25.361Z,69.83
2018-01-13T21:02:53.045Z,67.80
2018-01-13T21:05:22.426Z,57.77
2018-01-13T21:07:50.514Z,59.70
2018-01-13T21:10:21.320Z,67.87
2018-01-13T21:12:50.253Z,64.47
2018-01-13T21:15:27.868Z,59.40
2018-01-13T21:18:00.422Z,70.28
2018-01-13T21:20:29.491Z,50.77
2018-01-13T21:23:03.082Z,61.67
2018-01-13T21:25:34.093Z,54.10
2018-01-13T21:28:12.206Z,51.30
2018-01-13T21:30:44.300Z,46.00
2018-01-13T21:33:13.396Z,48.17
2018-01-13T21:35:43.365Z,50.97
2018-01-13T21:38:11.893Z,44.77
2018-01-13T21:40:40.370Z,45.83
2018-01-13T21:43:10.143Z,47.83
2018-01-13T21:45:38.514Z,50.87
2018-01-13T21:48:08.387Z,47.00
2018-01-13T21:50:36.407Z,60.07
2018-01-13T21:53:07.176Z,39.70
2018-01-13T21:55:37.729Z,39.93
2018-01-13T21:58:06.333Z,37.37
2018-01-13T22:00:39.303Z,39.50
2018-01-13T22:03:07.819Z,44.77
2018-01-13T22:05:41.212Z,42.13
2018-01-13T22:08:09.404Z,37.60
2018-01-13T22:10:40.037Z,37.77
2018-01-13T22:13:18.214Z,32.57
2018-01-13T22:15:47.755Z,37.43
2018-01-13T22:18:17.197Z,32.27
2018-01-13T22:20:47.183Z,32.10
2018-01-13T22:23:15.654Z,30.60
2018-01-13T22:25:47.225Z,30.80
2018-01-13T22:28:15.980Z,28.70
2018-01-13T22:30:46.686Z,33.13
2018-01-13T22:33:16.690Z,36.07
2018-01-13T22:35:46.685Z,28.40
2018-01-13T22:38:19.588Z,28.07
2018-01-13T22:40:50.961Z,23.73
2018-01-13T22:43:20.370Z,30.50
2018-01-13T22:45:48.717Z,28.67
2018-01-13T22:48:17.173Z,25.10
2018-01-13T22:50:48.355Z,25.73
2018-01-13T22:53:19.308Z,23.07
2018-01-13T22:55:48.928Z,29.90
2018-01-13T22:58:23.077Z,21.20
2018-01-13T23:00:58.264Z,27.73
2018-01-13T23:03:27.517Z,24.03
2018-01-13T23:05:55.457Z,24.03
2018-01-13T23:08:26.995Z,27.20
2018-01-13T23:11:00.547Z,22.63
2018-01-13T23:13:33.510Z,23.83
2018-01-13T23:16:02.116Z,19.27
2018-01-13T23:18:30.739Z,12.73
2018-01-13T23:21:01.691Z,20.80
2018-01-13T23:23:31.849Z,15.97
2018-01-13T23:26:01.333Z,20.53
2018-01-13T23:28:31.743Z,14.50
2018-01-13T23:30:59.454Z,18.03
2018-01-13T23:33:27.320Z,16.73
2018-01-13T23:35:55.223Z,20.67
2018-01-13T23:38:24.266Z,18.93
2018-01-13T23:40:53.122Z,13.53
2018-01-13T23:43:26.873Z,19.40
2018-01-13T23:45:59.410Z,18.57
2018-01-13T23:48:31.016Z,20.00
2018-01-13T23:51:02.543Z,14.40
2018-01-13T23:53:36.039Z,20.07
2018-01-13T23:56:05.295Z,15.50
2018-01-13T23:58:34.100Z,17.73
